Time;durP1;ratioP1;P1;durP2;ratioP2;P2;SDS_P1;SDS_P2;PMS_P1;PMS_P2;Temp;Humidity;BMP_temperature;BMP_pressure;BME280_temperature;BME280_humidity;BME280_pressure;Samples;Min_cycle;Max_cycle;Signal;HPM_P1;HPM_P2
2023/10/15 00:00:19;;;;;;;10.00;2.80;;;;;;;7.35;100.00;101527.19;5040158;28;20045;-68
2023/10/15 00:02:47;;;;;;;10.02;2.13;;;;;;;7.31;100.00;101525.75;5026185;28;20071;-67
2023/10/15 00:05:15;;;;;;;8.63;2.15;;;;;;;7.31;100.00;101526.59;5027615;28;20128;-67
2023/10/15 00:07:42;;;;;;;8.35;1.98;;;;;;;7.30;100.00;101521.56;5041530;28;20652;-68
2023/10/15 00:10:12;;;;;;;17.02;3.55;;;;;;;7.31;100.00;101520.59;5042315;28;20021;-67
2023/10/15 00:12:38;;;;;;;8.57;1.95;;;;;;;7.29;100.00;101522.47;5027235;28;21875;-68
2023/10/15 00:15:13;;;;;;;5.40;1.65;;;;;;;7.28;100.00;101521.66;5042692;28;20036;-67
2023/10/15 00:17:38;;;;;;;6.20;1.90;;;;;;;7.25;100.00;101521.06;5041866;28;20472;-68
2023/10/15 00:20:06;;;;;;;8.52;2.00;;;;;;;7.22;100.00;101525.53;5025366;28;20025;-67
2023/10/15 00:22:31;;;;;;;11.27;2.40;;;;;;;7.28;100.00;101523.44;5037020;28;20025;-68
2023/10/15 00:24:57;;;;;;;8.07;2.13;;;;;;;7.32;100.00;101524.84;5042278;28;20377;-67
2023/10/15 00:27:22;;;;;;;6.38;2.03;;;;;;;7.25;100.00;101526.22;5030050;28;20033;-68
2023/10/15 00:29:48;;;;;;;10.50;2.35;;;;;;;7.25;100.00;101533.97;5027261;28;20033;-67
2023/10/15 00:32:14;;;;;;;7.47;2.85;;;;;;;7.20;100.00;101531.75;5031699;28;20119;-67
2023/10/15 00:34:39;;;;;;;5.05;2.00;;;;;;;7.15;100.00;101529.50;5029764;28;20094;-67
2023/10/15 00:37:05;;;;;;;5.40;1.88;;;;;;;7.13;100.00;101533.16;5014694;28;20537;-67
2023/10/15 00:39:30;;;;;;;12.63;2.28;;;;;;;7.15;100.00;101537.25;5042407;28;20037;-67
2023/10/15 00:41:56;;;;;;;5.90;1.67;;;;;;;7.11;100.00;101530.69;5043429;28;20402;-67
2023/10/15 00:44:23;;;;;;;6.47;2.13;;;;;;;7.14;100.00;101533.03;5012986;28;20805;-67
2023/10/15 00:46:54;;;;;;;13.90;2.80;;;;;;;7.08;100.00;101523.16;5013356;28;20051;-67
2023/10/15 00:49:27;;;;;;;6.45;2.35;;;;;;;7.13;100.00;101526.22;5009803;28;20042;-68
2023/10/15 00:51:52;;;;;;;12.57;2.60;;;;;;;7.11;100.00;101522.94;5013797;28;20028;-67
2023/10/15 00:54:19;;;;;;;7.18;1.90;;;;;;;7.07;100.00;101524.13;5028552;28;20095;-67
2023/10/15 00:56:46;;;;;;;7.32;1.88;;;;;;;7.01;100.00;101517.66;5025500;28;20099;-67
2023/10/15 00:59:18;;;;;;;11.43;2.40;;;;;;;7.00;100.00;101517.75;5029390;28;20462;-67
2023/10/15 01:04:30;;;;;;;9.57;2.80;;;;;;;7.01;100.00;101524.59;5026952;28;20128;-67
2023/10/15 01:07:00;;;;;;;10.85;2.50;;;;;;;6.99;100.00;101527.25;5022902;28;20045;-67
2023/10/15 01:09:29;;;;;;;8.23;2.55;;;;;;;6.98;100.00;101522.22;5027885;28;20860;-67
2023/10/15 01:11:56;;;;;;;10.13;2.40;;;;;;;6.94;100.00;101520.81;5026733;28;20040;-67
2023/10/15 01:14:31;;;;;;;9.00;2.33;;;;;;;6.93;100.00;101511.41;5029439;28;20033;-67
2023/10/15 01:16:59;;;;;;;11.82;2.38;;;;;;;6.99;100.00;101521.28;5043130;28;20749;-67
2023/10/15 01:19:33;;;;;;;11.75;2.95;;;;;;;6.96;100.00;101518.94;5031744;28;20523;-67
2023/10/15 01:22:03;;;;;;;6.93;2.30;;;;;;;6.94;100.00;101515.66;5036921;28;20118;-67
2023/10/15 01:24:33;;;;;;;8.25;2.25;;;;;;;6.89;100.00;101512.59;5041560;28;20147;-67
2023/10/15 01:27:09;;;;;;;7.90;3.13;;;;;;;6.85;100.00;101516.34;5026073;28;20068;-67
2023/10/15 01:29:41;;;;;;;8.02;2.60;;;;;;;6.85;100.00;101526.66;5029257;28;20136;-67
2023/10/15 01:32:19;;;;;;;10.93;2.78;;;;;;;6.89;100.00;101515.16;5027175;28;20043;-66
2023/10/15 01:34:45;;;;;;;13.65;2.55;;;;;;;6.92;100.00;101514.94;5045601;28;20521;-67
2023/10/15 01:37:43;;;;;;;9.60;3.30;;;;;;;6.89;100.00;101503.09;5028779;28;20455;-67
2023/10/15 01:42:40;;;;;;;10.02;2.33;;;;;;;6.84;100.00;101510.38;5028583;28;20045;-67
2023/10/15 01:45:15;;;;;;;9.40;2.50;;;;;;;6.88;100.00;101508.38;5045598;28;20044;-67
2023/10/15 01:50:23;;;;;;;6.97;2.20;;;;;;;6.86;100.00;101512.84;5032101;28;20167;-67
2023/10/15 01:52:54;;;;;;;13.65;2.75;;;;;;;6.87;100.00;101515.28;5016635;28;20487;-68
2023/10/15 01:55:19;;;;;;;8.40;2.70;;;;;;;6.82;100.00;101514.81;5037394;28;20361;-67
2023/10/15 01:57:46;;;;;;;6.60;2.60;;;;;;;6.82;100.00;101540.59;5034796;28;22166;-67
2023/10/15 02:00:13;;;;;;;9.90;2.65;;;;;;;6.93;100.00;101532.06;5021023;28;20048;-67
2023/10/15 02:02:42;;;;;;;11.63;2.90;;;;;;;6.90;100.00;101540.03;5030063;28;20030;-67
2023/10/15 02:05:25;;;;;;;6.00;2.53;;;;;;;6.92;100.00;101535.59;5033308;28;20064;-68
2023/10/15 02:07:51;;;;;;;7.20;2.88;;;;;;;6.96;100.00;101542.16;5015282;28;20124;-68
2023/10/15 02:10:16;;;;;;;8.48;2.83;;;;;;;6.93;100.00;101537.22;5022239;28;20037;-67
2023/10/15 02:12:42;;;;;;;10.32;2.42;;;;;;;6.97;100.00;101530.91;5037257;28;20479;-67
2023/10/15 02:15:15;;;;;;;8.38;2.50;;;;;;;7.03;100.00;101530.44;5033014;28;20041;-67
2023/10/15 02:17:45;;;;;;;7.78;2.63;;;;;;;7.05;100.00;101533.72;5049973;28;20037;-68
2023/10/15 02:20:13;;;;;;;10.25;3.17;;;;;;;7.02;100.00;101537.34;5023995;28;20017;-68
2023/10/15 02:22:38;;;;;;;9.55;2.80;;;;;;;7.03;100.00;101527.88;5035712;28;20145;-68
2023/10/15 02:25:05;;;;;;;11.60;2.85;;;;;;;7.02;100.00;101532.19;5036138;28;20056;-67
2023/10/15 02:27:35;;;;;;;12.95;2.42;;;;;;;7.02;100.00;101539.09;5036764;28;20083;-68
2023/10/15 02:30:02;;;;;;;7.07;2.97;;;;;;;7.00;100.00;101533.25;5031712;28;20037;-68
2023/10/15 02:34:57;;;;;;;10.38;3.08;;;;;;;7.00;100.00;101523.72;5037203;28;20075;-67
2023/10/15 02:37:26;;;;;;;7.88;2.60;;;;;;;7.01;100.00;101522.81;5011761;28;20060;-68
2023/10/15 02:39:52;;;;;;;6.68;2.50;;;;;;;7.02;100.00;101521.84;5052054;28;20046;-67
2023/10/15 02:42:20;;;;;;;9.65;2.90;;;;;;;7.05;100.00;101510.50;5036923;28;20398;-68
2023/10/15 02:44:50;;;;;;;12.18;3.20;;;;;;;7.08;100.00;101507.69;5037029;28;20048;-68
2023/10/15 02:47:19;;;;;;;6.10;2.83;;;;;;;7.12;100.00;101509.13;5037351;28;20135;-67
2023/10/15 02:50:01;;;;;;;13.80;3.10;;;;;;;7.18;100.00;101518.16;5017455;28;20045;-67
2023/10/15 02:52:35;;;;;;;8.77;3.00;;;;;;;7.18;100.00;101541.38;5051978;28;20430;-68
2023/10/15 02:55:06;;;;;;;9.18;2.50;;;;;;;7.17;100.00;101526.81;5036501;28;22069;-67
2023/10/15 02:57:38;;;;;;;7.32;3.40;;;;;;;7.14;100.00;101529.63;5032265;28;20035;-68
2023/10/15 03:00:12;;;;;;;11.18;3.03;;;;;;;7.16;100.00;101531.16;5035763;28;20108;-67
2023/10/15 03:02:43;;;;;;;10.52;2.67;;;;;;;7.22;100.00;101535.03;5034323;28;20491;-68
2023/10/15 03:05:13;;;;;;;8.32;3.28;;;;;;;7.21;100.00;101531.63;5029186;28;20041;-68
2023/10/15 03:07:42;;;;;;;6.65;2.80;;;;;;;7.19;100.00;101530.09;5029913;28;20033;-68
2023/10/15 03:10:12;;;;;;;9.63;3.03;;;;;;;7.17;100.00;101532.78;5024499;28;20056;-68
2023/10/15 03:12:44;;;;;;;10.07;2.95;;;;;;;7.18;100.00;101541.38;5038216;28;20029;-68
2023/10/15 03:15:17;;;;;;;10.80;2.63;;;;;;;7.19;100.00;101545.56;5016038;28;20079;-67
2023/10/15 03:17:45;;;;;;;13.85;3.08;;;;;;;7.17;100.00;101561.16;5016538;28;20112;-68
2023/10/15 03:22:44;;;;;;;9.63;2.85;;;;;;;7.29;100.00;101550.84;5028384;28;20052;-68
2023/10/15 03:25:13;;;;;;;12.05;4.18;;;;;;;7.33;100.00;101562.63;5026613;28;21312;-67
2023/10/15 03:27:53;;;;;;;8.57;4.13;;;;;;;7.34;100.00;101562.47;5030580;28;20479;-68
2023/10/15 03:30:23;;;;;;;13.23;3.30;;;;;;;7.33;100.00;101560.03;5032081;28;20032;-67
2023/10/15 03:32:49;;;;;;;8.20;3.20;;;;;;;7.29;100.00;101548.28;5013567;28;20108;-68
2023/10/15 03:35:18;;;;;;;5.38;3.17;;;;;;;7.27;100.00;101537.25;5033205;28;20033;-67
2023/10/15 03:37:47;;;;;;;11.52;3.63;;;;;;;7.33;100.00;101519.56;5013211;28;20063;-67
2023/10/15 03:43:06;;;;;;;14.57;4.25;;;;;;;7.30;100.00;101527.53;5042450;28;20041;-67
2023/10/15 03:45:50;;;;;;;18.08;5.03;;;;;;;7.37;100.00;101526.13;5030607;28;20095;-67
2023/10/15 03:48:28;;;;;;;9.82;5.00;;;;;;;7.35;100.00;101520.25;5029932;28;20064;-67
2023/10/15 03:50:58;;;;;;;9.65;4.53;;;;;;;7.31;100.00;101525.75;5031426;28;20165;-67
2023/10/15 03:53:28;;;;;;;20.42;8.52;;;;;;;7.27;100.00;101516.63;5043894;28;20033;-67
2023/10/15 03:56:01;;;;;;;14.23;6.85;;;;;;;7.18;100.00;101508.66;5044340;28;20562;-67
2023/10/15 03:58:33;;;;;;;;;;;;;;;7.21;100.00;101505.84;5043675;28;20048;-67
2023/10/15 04:01:17;;;;;;;13.10;5.22;;;;;;;7.16;100.00;101505.38;5043198;28;20318;-67
2023/10/15 04:03:47;;;;;;;9.35;4.93;;;;;;;7.18;100.00;101508.66;5042356;28;20045;-67
2023/10/15 04:06:14;;;;;;;7.18;4.15;;;;;;;7.24;100.00;101509.94;5042879;28;20040;-67
2023/10/15 04:08:40;;;;;;;10.48;4.05;;;;;;;7.18;100.00;101510.41;5044075;28;20029;-67
2023/10/15 04:11:08;;;;;;;12.55;4.75;;;;;;;7.14;100.00;101507.25;5030264;28;20051;-67
2023/10/15 04:13:35;;;;;;;8.45;3.80;;;;;;;7.13;100.00;101515.09;5026778;28;20051;-68
2023/10/15 04:16:00;;;;;;;10.90;3.25;;;;;;;7.13;100.00;101526.22;5043725;28;20427;-67
2023/10/15 04:18:26;;;;;;;7.68;3.40;;;;;;;7.18;100.00;101556.84;5026270;28;20045;-68
2023/10/15 04:20:53;;;;;;;9.27;3.45;;;;;;;7.16;100.00;101559.53;5025335;28;20048;-68
2023/10/15 04:23:31;;;;;;;14.93;3.97;;;;;;;7.11;100.00;101530.69;5040523;28;20053;-68
2023/10/15 04:26:07;;;;;;;9.98;3.95;;;;;;;7.16;100.00;101566.47;5030238;28;20040;-67
2023/10/15 04:28:33;;;;;;;9.20;4.00;;;;;;;7.18;100.00;101569.75;5028679;28;20056;-68
2023/10/15 04:30:59;;;;;;;11.90;4.40;;;;;;;7.15;100.00;101563.03;5029389;28;20040;-68
2023/10/15 04:33:27;;;;;;;7.85;3.75;;;;;;;7.14;100.00;101571.72;5042915;28;20040;-68
2023/10/15 04:35:56;;;;;;;8.20;3.75;;;;;;;7.17;100.00;101566.31;5029822;28;20040;-68
2023/10/15 04:38:27;;;;;;;8.27;4.43;;;;;;;7.16;100.00;101574.19;5044748;28;20041;-68
2023/10/15 04:43:25;;;;;;;10.52;5.03;;;;;;;7.19;100.00;101576.53;5029899;28;20029;-68
2023/10/15 04:45:55;;;;;;;23.63;6.05;;;;;;;7.27;100.00;101561.31;5041886;28;20045;-68
2023/10/15 04:48:26;;;;;;;15.10;5.82;;;;;;;7.16;100.00;101587.91;5011425;28;20094;-68
2023/10/15 04:50:53;;;;;;;12.45;5.75;;;;;;;7.25;100.00;101583.00;5028333;28;20153;-68
2023/10/15 04:55:46;;;;;;;15.52;5.72;;;;;;;7.27;100.00;101592.28;5042954;28;20037;-68
2023/10/15 04:58:12;;;;;;;12.00;5.47;;;;;;;7.24;100.00;101596.84;5014524;28;20044;-68
2023/10/15 05:00:47;;;;;;;15.55;6.05;;;;;;;7.21;100.00;101597.88;5040364;28;20033;-68
2023/10/15 05:03:14;;;;;;;11.43;5.30;;;;;;;7.15;100.00;101575.94;5041914;28;20049;-68
2023/10/15 05:05:43;;;;;;;8.73;4.53;;;;;;;7.00;100.00;101579.66;5028492;28;20053;-68
2023/10/15 05:08:12;;;;;;;10.73;3.92;;;;;;;7.02;100.00;101582.94;5024191;28;20458;-68
2023/10/15 05:10:50;;;;;;;7.18;3.13;;;;;;;6.99;100.00;101575.44;5046389;28;20472;-67
2023/10/15 05:13:16;;;;;;;8.95;2.92;;;;;;;6.97;100.00;101561.84;5022909;28;20072;-68
2023/10/15 05:15:48;;;;;;;5.63;2.83;;;;;;;6.99;100.00;101568.53;5045490;28;20040;-68
2023/10/15 05:18:15;;;;;;;8.20;2.60;;;;;;;6.98;100.00;101564.28;5027706;28;20036;-68
2023/10/15 05:20:43;;;;;;;10.98;3.13;;;;;;;7.00;100.00;101569.34;5012308;28;20479;-68
2023/10/15 05:23:09;;;;;;;6.45;2.60;;;;;;;7.01;100.00;101566.66;5025327;28;20784;-68
2023/10/15 05:25:34;;;;;;;5.10;2.70;;;;;;;6.97;100.00;101578.13;5029030;28;20044;-67
2023/10/15 05:28:00;;;;;;;8.70;2.47;;;;;;;6.98;100.00;101566.88;5026191;28;20152;-68
2023/10/15 05:30:28;;;;;;;7.18;2.63;;;;;;;6.97;100.00;101572.97;5013346;28;20032;-68
2023/10/15 05:32:54;;;;;;;5.60;2.88;;;;;;;6.99;100.00;101578.03;5039255;28;20032;-68
2023/10/15 05:35:19;;;;;;;7.88;3.15;;;;;;;7.02;100.00;101570.84;5044268;28;20568;-68
2023/10/15 05:37:45;;;;;;;11.43;2.47;;;;;;;6.98;100.00;101573.78;5032962;28;20041;-68
2023/10/15 05:40:15;;;;;;;5.38;3.15;;;;;;;6.97;100.00;101567.00;5045697;28;20072;-68
2023/10/15 05:42:41;;;;;;;5.55;2.65;;;;;;;6.95;100.00;101574.00;5042592;28;20145;-68
2023/10/15 05:45:07;;;;;;;6.15;1.92;;;;;;;6.89;100.00;101587.34;5030088;28;20029;-67
2023/10/15 05:47:36;;;;;;;8.32;2.58;;;;;;;6.98;100.00;101584.09;5042856;28;20036;-68
2023/10/15 05:50:05;;;;;;;6.25;2.67;;;;;;;6.98;100.00;101578.94;5026448;28;20171;-68
2023/10/15 05:52:31;;;;;;;5.25;2.30;;;;;;;6.87;100.00;101581.50;5011155;28;20057;-68
2023/10/15 05:54:57;;;;;;;4.50;1.95;;;;;;;6.90;100.00;101565.81;5037615;28;20116;-67
2023/10/15 05:57:23;;;;;;;5.70;1.90;;;;;;;6.83;100.00;101557.69;5028042;28;20041;-67
2023/10/15 05:59:49;;;;;;;4.15;1.55;;;;;;;6.81;100.00;101565.53;5030355;28;20029;-67
2023/10/15 06:02:14;;;;;;;4.18;1.80;;;;;;;6.76;100.00;101552.19;5028287;28;20045;-67
2023/10/15 06:04:42;;;;;;;4.72;1.52;;;;;;;6.80;100.00;101555.38;5042777;28;20234;-67
2023/10/15 06:07:08;;;;;;;2.15;1.30;;;;;;;6.75;100.00;101562.59;5028360;28;20041;-67
2023/10/15 06:09:37;;;;;;;3.20;1.33;;;;;;;6.77;100.00;101569.28;5040754;28;20339;-66
2023/10/15 06:12:04;;;;;;;1.77;1.20;;;;;;;6.76;100.00;101575.38;5031535;28;20103;-67
2023/10/15 06:14:30;;;;;;;4.07;1.30;;;;;;;6.79;100.00;101579.47;5011195;28;20067;-67
2023/10/15 06:16:56;;;;;;;2.97;1.00;;;;;;;6.80;100.00;101573.41;5027869;28;20040;-67
2023/10/15 06:19:21;;;;;;;4.80;1.45;;;;;;;6.80;100.00;101571.63;5026695;28;20522;-67
2023/10/15 06:21:47;;;;;;;4.05;1.42;;;;;;;6.80;100.00;101576.78;5043340;28;20024;-67
2023/10/15 06:24:12;;;;;;;2.05;1.05;;;;;;;6.75;100.00;101570.34;5025970;28;20098;-67
2023/10/15 06:26:38;;;;;;;1.48;0.93;;;;;;;6.74;100.00;101584.16;5042991;28;20048;-67
2023/10/15 06:29:04;;;;;;;3.80;0.80;;;;;;;6.77;100.00;101589.09;5026862;28;20119;-66
2023/10/15 06:31:30;;;;;;;3.45;0.77;;;;;;;6.75;100.00;101596.13;5027660;28;20087;-67
2023/10/15 06:33:56;;;;;;;3.35;0.75;;;;;;;6.80;100.00;101601.75;5021806;28;20044;-67
2023/10/15 06:36:22;;;;;;;2.67;0.88;;;;;;;6.77;100.00;101596.81;5026107;28;20383;-67
2023/10/15 06:38:49;;;;;;;1.58;0.85;;;;;;;6.74;100.00;101597.03;5045008;28;20038;-66
2023/10/15 06:41:15;;;;;;;6.25;1.80;;;;;;;6.75;100.00;101598.69;5031361;28;20400;-67
2023/10/15 06:43:40;;;;;;;3.60;1.17;;;;;;;6.75;100.00;101604.66;5030151;28;20064;-67
2023/10/15 06:46:07;;;;;;;3.08;0.80;;;;;;;6.86;100.00;101603.06;5046754;28;20052;-67
2023/10/15 06:48:33;;;;;;;1.08;0.60;;;;;;;6.79;100.00;101605.25;5044297;28;20045;-67
2023/10/15 06:51:02;;;;;;;3.40;0.95;;;;;;;6.79;100.00;101611.22;5046940;28;20060;-67
2023/10/15 06:53:28;;;;;;;2.42;0.88;;;;;;;6.83;100.00;101606.69;5036561;28;20132;-67
2023/10/15 06:55:53;;;;;;;4.88;0.88;;;;;;;6.77;100.00;101610.53;5047476;28;20590;-67
2023/10/15 06:58:19;;;;;;;2.88;0.80;;;;;;;6.84;100.00;101616.06;5046834;28;20495;-66
2023/10/15 07:00:45;;;;;;;5.78;1.30;;;;;;;6.80;100.00;101620.63;5045632;28;20087;-67
2023/10/15 07:03:10;;;;;;;2.15;1.25;;;;;;;6.89;100.00;101621.69;5043291;28;20499;-67
2023/10/15 07:05:36;;;;;;;3.42;0.90;;;;;;;6.90;100.00;101620.78;5045527;28;20048;-66
2023/10/15 07:08:02;;;;;;;1.77;0.73;;;;;;;6.97;100.00;101628.91;5045554;28;20049;-67
2023/10/15 07:10:27;;;;;;;1.17;0.80;;;;;;;7.02;100.00;101635.34;5028832;28;20032;-67
2023/10/15 07:12:54;;;;;;;9.50;0.90;;;;;;;7.07;100.00;101645.31;5044710;28;20307;-67
2023/10/15 07:15:20;;;;;;;3.90;1.10;;;;;;;7.14;100.00;101651.69;5027049;28;20045;-67
2023/10/15 07:17:47;;;;;;;3.90;1.20;;;;;;;7.25;100.00;101656.03;5030445;28;20055;-66
2023/10/15 07:20:21;;;;;;;2.38;1.15;;;;;;;7.21;100.00;101657.19;5029979;28;20403;-67
2023/10/15 07:22:48;;;;;;;1.75;1.10;;;;;;;7.29;100.00;101664.38;5046700;28;20511;-67
2023/10/15 07:25:16;;;;;;;4.18;1.08;;;;;;;7.36;100.00;101673.31;5030126;28;20055;-66
2023/10/15 07:27:45;;;;;;;2.58;1.20;;;;;;;7.26;100.00;101675.75;5048220;28;20540;-67
2023/10/15 07:30:12;;;;;;;3.10;1.40;;;;;;;7.35;100.00;101679.41;5036792;28;20112;-67
2023/10/15 07:32:42;;;;;;;3.30;1.23;;;;;;;7.28;100.00;101678.22;5039893;28;20025;-66
2023/10/15 07:35:13;;;;;;;4.65;1.70;;;;;;;7.27;100.00;101679.16;5029483;28;20116;-67
2023/10/15 07:37:44;;;;;;;2.45;1.55;;;;;;;7.21;100.00;101677.84;5034004;28;20407;-67
2023/10/15 07:40:16;;;;;;;3.97;2.13;;;;;;;7.26;100.00;101682.69;5029795;28;20036;-66
2023/10/15 07:42:48;;;;;;;5.28;2.33;;;;;;;7.33;100.00;101682.09;5046587;28;20079;-67
2023/10/15 07:45:14;;;;;;;2.45;1.75;;;;;;;7.31;100.00;101685.72;4985351;28;20063;-67
2023/10/15 07:47:40;;;;;;;6.55;2.45;;;;;;;7.35;100.00;101682.00;4976582;28;20030;-67
2023/10/15 07:50:14;;;;;;;5.43;2.38;;;;;;;7.46;100.00;101687.19;4965744;28;20027;-66
2023/10/15 07:52:40;;;;;;;6.90;2.78;;;;;;;7.50;100.00;101698.94;4957660;28;20129;-67
2023/10/15 07:55:06;;;;;;;3.75;2.45;;;;;;;7.59;100.00;101694.81;4947254;28;20053;-67
2023/10/15 07:57:32;;;;;;;7.50;4.05;;;;;;;7.68;100.00;101703.66;4951161;28;20034;-67
2023/10/15 07:59:58;;;;;;;143.05;48.22;;;;;;;7.69;100.00;101697.56;4963592;28;20039;-66
2023/10/15 08:02:27;;;;;;;194.60;58.95;;;;;;;7.69;100.00;101706.13;4962903;28;20026;-67
2023/10/15 08:04:57;;;;;;;108.45;34.80;;;;;;;7.71;100.00;101704.25;4974797;28;20439;-66
2023/10/15 08:07:22;;;;;;;88.43;31.48;;;;;;;7.69;100.00;101702.72;4987142;28;20034;-67
2023/10/15 08:09:50;;;;;;;25.45;12.95;;;;;;;7.71;100.00;101704.25;4987617;28;20563;-66
2023/10/15 08:12:16;;;;;;;11.38;5.75;;;;;;;7.73;100.00;101710.09;4988585;28;20034;-67
2023/10/15 08:14:42;;;;;;;17.95;9.30;;;;;;;7.79;100.00;101706.25;4966176;28;20034;-67
2023/10/15 08:17:07;;;;;;;14.10;8.55;;;;;;;7.70;100.00;101714.69;4972346;28;20540;-67
2023/10/15 08:19:33;;;;;;;8.10;4.63;;;;;;;7.75;100.00;101718.56;4983447;28;20050;-66
2023/10/15 08:21:59;;;;;;;5.85;4.30;;;;;;;7.75;100.00;101717.75;4984749;28;20393;-66
2023/10/15 08:24:25;;;;;;;9.40;5.88;;;;;;;7.78;100.00;101720.91;4965883;28;20472;-66
2023/10/15 08:26:51;;;;;;;13.98;8.82;;;;;;;7.80;100.00;101711.28;4983385;28;20045;-66
2023/10/15 08:29:19;;;;;;;6.13;4.07;;;;;;;7.86;100.00;101715.19;4979621;28;21955;-66
2023/10/15 08:31:46;;;;;;;6.78;3.83;;;;;;;7.96;100.00;101715.28;4982280;28;20035;-67
2023/10/15 08:34:12;;;;;;;5.75;3.63;;;;;;;8.03;100.00;101720.84;4981553;28;20066;-66
2023/10/15 08:36:38;;;;;;;9.15;5.03;;;;;;;8.15;100.00;101733.63;4982987;28;20042;-67
2023/10/15 08:39:06;;;;;;;7.45;4.32;;;;;;;8.24;100.00;101733.88;4965788;28;20442;-66
2023/10/15 08:41:38;;;;;;;8.23;4.05;;;;;;;8.35;100.00;101726.91;4953116;28;20038;-66
2023/10/15 08:44:06;;;;;;;5.43;3.80;;;;;;;8.52;100.00;101730.81;4985037;28;20038;-66
2023/10/15 08:46:32;;;;;;;5.88;3.90;;;;;;;8.56;100.00;101734.78;4968498;28;20125;-66
2023/10/15 08:49:00;;;;;;;7.90;4.07;;;;;;;8.64;100.00;101738.56;4982592;28;20062;-66
2023/10/15 08:51:26;;;;;;;8.93;4.40;;;;;;;8.74;100.00;101737.72;4982630;28;20255;-66
2023/10/15 08:53:53;;;;;;;7.25;4.03;;;;;;;8.74;100.00;101740.31;4982651;28;20132;-66
2023/10/15 08:56:22;;;;;;;5.32;3.58;;;;;;;8.79;100.00;101749.47;4965137;28;20521;-66
2023/10/15 08:58:54;;;;;;;9.95;4.03;;;;;;;8.85;100.00;101757.53;4968047;28;20053;-67
2023/10/15 09:01:21;;;;;;;8.83;4.30;;;;;;;9.04;100.00;101756.94;4978185;28;20042;-66
2023/10/15 09:03:47;;;;;;;10.95;4.65;;;;;;;8.99;100.00;101756.47;4980154;28;20050;-66
2023/10/15 09:06:14;;;;;;;15.68;8.30;;;;;;;9.03;100.00;101760.44;4980193;28;20392;-66
2023/10/15 09:08:41;;;;;;;8.35;4.60;;;;;;;8.92;100.00;101773.41;4950488;28;20047;-66
2023/10/15 09:11:07;;;;;;;7.88;4.05;;;;;;;8.81;100.00;101768.25;4982628;28;20026;-66
2023/10/15 09:13:36;;;;;;;13.63;7.03;;;;;;;9.11;100.00;101776.16;4959710;28;20041;-66
2023/10/15 09:16:03;;;;;;;13.15;7.40;;;;;;;9.18;100.00;101778.28;4967039;28;20113;-66
2023/10/15 09:18:31;;;;;;;8.13;4.75;;;;;;;9.28;100.00;101781.75;4983310;28;20038;-66
2023/10/15 09:20:58;;;;;;;6.55;4.00;;;;;;;9.29;100.00;101792.00;4973045;28;20117;-66
2023/10/15 09:23:24;;;;;;;8.23;4.22;;;;;;;9.15;100.00;101792.28;4965893;28;20166;-66
2023/10/15 09:25:55;;;;;;;6.82;3.40;;;;;;;9.05;100.00;101788.78;4967597;28;20129;-66
2023/10/15 09:28:22;;;;;;;6.15;3.65;;;;;;;9.06;100.00;101793.84;4981953;28;20081;-66
2023/10/15 09:30:48;;;;;;;10.73;5.55;;;;;;;9.06;100.00;101804.19;4983659;28;20597;-66
2023/10/15 09:33:16;;;;;;;7.32;3.70;;;;;;;9.10;100.00;101809.94;4978254;28;20481;-67
2023/10/15 09:35:42;;;;;;;7.63;5.13;;;;;;;9.25;100.00;101813.06;4967898;28;20504;-66
2023/10/15 09:38:14;;;;;;;5.55;3.20;;;;;;;9.13;100.00;101812.28;4950633;28;20050;-66
2023/10/15 09:40:43;;;;;;;6.70;3.40;;;;;;;9.28;100.00;101813.63;4984037;28;20041;-66
2023/10/15 09:43:10;;;;;;;5.82;3.08;;;;;;;9.42;100.00;101824.66;4980568;28;20117;-66
2023/10/15 09:45:36;;;;;;;6.47;3.63;;;;;;;9.52;100.00;101826.38;4983243;28;20034;-66
2023/10/15 09:48:02;;;;;;;7.30;3.88;;;;;;;9.55;100.00;101828.72;4968031;28;20096;-66
2023/10/15 09:50:31;;;;;;;4.25;2.20;;;;;;;9.51;100.00;101831.69;4968277;28;20026;-66
2023/10/15 09:53:01;;;;;;;4.22;2.00;;;;;;;9.45;100.00;101835.59;4962687;28;20037;-66
2023/10/15 09:55:33;;;;;;;3.78;1.52;;;;;;;9.48;100.00;101835.34;4983091;28;20034;-66
2023/10/15 09:58:10;;;;;;;6.60;2.08;;;;;;;9.61;100.00;101834.38;4981726;28;20090;-66
2023/10/15 10:01:08;;;;;;;5.63;1.90;;;;;;;9.62;100.00;101841.19;4982430;28;20053;-66
2023/10/15 10:03:49;;;;;;;4.40;2.30;;;;;;;9.58;100.00;101843.19;4980616;28;20768;-66
2023/10/15 10:06:53;;;;;;;11.10;2.40;;;;;;;9.83;100.00;101849.81;4948589;28;20108;-66
2023/10/15 10:09:41;;;;;;;4.85;2.42;;;;;;;9.82;100.00;101849.94;4981220;28;20050;-66
2023/10/15 10:12:28;;;;;;;7.90;2.13;;;;;;;9.84;100.00;101853.22;4982589;28;20035;-66
2023/10/15 10:15:32;;;;;;;4.78;2.00;;;;;;;9.77;99.39;101852.06;4986147;28;20057;-66
2023/10/15 10:17:59;;;;;;;5.93;2.08;;;;;;;9.82;98.58;101855.91;5001195;28;20057;-66
2023/10/15 10:20:31;;;;;;;7.03;2.25;;;;;;;9.66;96.57;101856.34;4988249;28;20991;-66
2023/10/15 10:22:59;;;;;;;5.07;2.10;;;;;;;9.62;95.35;101843.78;4982598;28;20043;-66
2023/10/15 10:25:36;;;;;;;9.88;2.72;;;;;;;9.60;94.99;101856.03;4987127;28;20027;-66
2023/10/15 10:28:21;;;;;;;10.75;4.80;;;;;;;9.79;95.33;101860.53;4981361;28;20504;-66
2023/10/15 10:31:07;;;;;;;5.85;1.92;;;;;;;9.94;94.43;101861.88;4987170;28;20046;-66
2023/10/15 10:33:41;;;;;;;8.18;2.13;;;;;;;9.87;95.54;101863.31;4984396;28;20529;-66
2023/10/15 10:36:14;;;;;;;4.90;1.83;;;;;;;9.88;95.48;101860.59;4987072;28;20053;-66
2023/10/15 10:38:41;;;;;;;8.15;2.00;;;;;;;9.87;94.73;101865.91;4955759;28;20034;-66
2023/10/15 10:41:14;;;;;;;9.15;1.50;;;;;;;9.86;92.87;101867.66;4969011;28;20060;-66
2023/10/15 10:43:42;;;;;;;3.95;1.58;;;;;;;9.72;93.08;101862.81;4981165;28;20063;-66
2023/10/15 10:46:18;;;;;;;5.30;1.50;;;;;;;9.87;95.62;101865.91;4969788;28;20121;-66
2023/10/15 10:48:44;;;;;;;4.47;2.05;;;;;;;9.85;92.52;101867.78;4985520;28;20109;-66
2023/10/15 10:51:13;;;;;;;5.85;1.80;;;;;;;10.00;93.19;101865.72;4968386;28;20567;-66
2023/10/15 10:53:39;;;;;;;5.90;1.55;;;;;;;10.16;92.17;101876.47;4968694;28;20046;-66
2023/10/15 10:56:06;;;;;;;3.72;1.40;;;;;;;10.04;92.36;101867.94;4997232;28;20037;-66
2023/10/15 10:58:34;;;;;;;4.38;1.67;;;;;;;10.16;91.45;101862.69;4983163;28;20057;-66
2023/10/15 11:01:00;;;;;;;5.50;1.50;;;;;;;10.31;91.11;101864.03;4982396;28;20041;-66
2023/10/15 11:03:26;;;;;;;3.88;1.40;;;;;;;10.49;89.73;101870.28;4954175;28;20102;-66
2023/10/15 11:05:55;;;;;;;4.28;1.40;;;;;;;10.59;88.91;101865.13;4985032;28;20590;-66
2023/10/15 11:08:21;;;;;;;2.28;1.10;;;;;;;10.49;85.64;101867.69;4983425;28;20457;-66
2023/10/15 11:10:48;;;;;;;4.93;1.75;;;;;;;10.45;86.52;101863.72;4971732;28;20026;-66
2023/10/15 11:13:16;;;;;;;8.30;2.33;;;;;;;10.50;86.30;101869.31;4987006;28;20073;-66
2023/10/15 11:15:52;;;;;;;3.78;1.48;;;;;;;10.49;84.81;101865.09;4986033;28;20097;-66
2023/10/15 11:18:25;;;;;;;4.43;1.80;;;;;;;10.47;86.82;101884.31;4971453;28;20054;-66
2023/10/15 11:20:52;;;;;;;15.23;4.78;;;;;;;10.37;87.93;101880.84;4966741;28;20038;-66
2023/10/15 11:23:18;;;;;;;5.18;1.70;;;;;;;10.26;86.71;101879.94;4951650;28;20062;-66
2023/10/15 11:25:44;;;;;;;5.43;1.50;;;;;;;10.18;87.28;101879.75;4971225;28;20030;-66
2023/10/15 11:28:11;;;;;;;2.40;1.25;;;;;;;10.26;87.67;101874.75;4986186;28;20519;-66
2023/10/15 11:30:41;;;;;;;5.13;1.15;;;;;;;10.42;86.52;101870.94;4985411;28;20496;-67
2023/10/15 11:33:09;;;;;;;26.95;10.43;;;;;;;10.82;85.12;101878.72;4969432;28;20038;-66
2023/10/15 11:35:34;;;;;;;42.38;17.98;;;;;;;10.95;83.83;101872.50;4966945;28;20038;-66
2023/10/15 11:38:10;;;;;;;6.55;2.42;;;;;;;10.76;83.07;101879.25;4983633;28;21913;-67
2023/10/15 11:40:39;;;;;;;3.85;1.27;;;;;;;10.74;82.70;101877.72;4984256;28;20480;-66
2023/10/15 11:43:18;;;;;;;4.97;1.30;;;;;;;10.47;83.42;101879.13;4985613;28;20085;-67
2023/10/15 11:45:45;;;;;;;4.78;1.10;;;;;;;10.47;84.06;101879.13;4985541;28;20034;-66
2023/10/15 11:48:12;;;;;;;7.80;2.63;;;;;;;10.65;83.98;101874.97;4984252;28;20093;-66
2023/10/15 11:50:40;;;;;;;24.85;12.52;;;;;;;10.77;85.89;101882.66;4971241;28;20022;-66
2023/10/15 11:53:16;;;;;;;8.45;4.40;;;;;;;10.84;86.53;101878.59;4982323;28;20421;-67